sensor_id;sensor_type;location;lat;lon;timestamp;P1;durP1;ratioP1;P2;durP2;ratioP2
13463;SDS011;6804;48.774;9.174;2023-06-05T00:01:17;2.60;;;2.40;;
13463;SDS011;6804;48.774;9.174;2023-06-05T00:03:47;3.07;;;2.10;;
13463;SDS011;6804;48.774;9.174;2023-06-05T00:06:22;2.27;;;2.00;;
13463;SDS011;6804;48.774;9.174;2023-06-05T00:08:49;3.63;;;2.07;;
13463;SDS011;6804;48.774;9.174;2023-06-05T00:11:19;2.57;;;2.30;;
13463;SDS011;6804;48.774;9.174;2023-06-05T00:13:47;3.10;;;2.07;;
13463;SDS011;6804;48.774;9.174;2023-06-05T00:16:14;3.40;;;2.33;;
13463;SDS011;6804;48.774;9.174;2023-06-05T00:18:44;2.83;;;2.20;;
13463;SDS011;6804;48.774;9.174;2023-06-05T00:21:21;2.63;;;2.43;;
13463;SDS011;6804;48.774;9.174;2023-06-05T00:23:50;2.20;;;2.00;;
13463;SDS011;6804;48.774;9.174;2023-06-05T00:26:17;3.37;;;2.30;;
13463;SDS011;6804;48.774;9.174;2023-06-05T00:28:47;2.10;;;1.90;;
13463;SDS011;6804;48.774;9.174;2023-06-05T00:31:15;2.87;;;2.30;;
13463;SDS011;6804;48.774;9.174;2023-06-05T00:33:43;2.43;;;1.97;;
13463;SDS011;6804;48.774;9.174;2023-06-05T00:36:17;2.30;;;1.93;;
13463;SDS011;6804;48.774;9.174;2023-06-05T00:38:49;2.63;;;2.40;;
13463;SDS011;6804;48.774;9.174;2023-06-05T00:41:16;2.53;;;1.90;;
13463;SDS011;6804;48.774;9.174;2023-06-05T00:43:44;3.07;;;2.30;;
13463;SDS011;6804;48.774;9.174;2023-06-05T00:46:11;3.10;;;2.33;;
13463;SDS011;6804;48.774;9.174;2023-06-05T00:48:44;2.63;;;2.10;;
13463;SDS011;6804;48.774;9.174;2023-06-05T00:51:13;2.70;;;2.10;;
13463;SDS011;6804;48.774;9.174;2023-06-05T00:53:41;3.47;;;2.27;;
13463;SDS011;6804;48.774;9.174;2023-06-05T00:56:12;3.23;;;2.60;;
13463;SDS011;6804;48.774;9.174;2023-06-05T00:58:43;2.77;;;2.37;;
13463;SDS011;6804;48.774;9.174;2023-06-05T01:01:11;2.40;;;2.13;;
13463;SDS011;6804;48.774;9.174;2023-06-05T01:03:43;2.53;;;2.20;;
13463;SDS011;6804;48.774;9.174;2023-06-05T01:06:12;2.40;;;2.20;;
13463;SDS011;6804;48.774;9.174;2023-06-05T01:08:44;2.27;;;2.00;;
13463;SDS011;6804;48.774;9.174;2023-06-05T01:11:19;3.13;;;2.10;;
13463;SDS011;6804;48.774;9.174;2023-06-05T01:13:54;3.90;;;2.20;;
13463;SDS011;6804;48.774;9.174;2023-06-05T01:16:33;4.00;;;2.53;;
13463;SDS011;6804;48.774;9.174;2023-06-05T01:19:00;3.07;;;2.03;;
13463;SDS011;6804;48.774;9.174;2023-06-05T01:21:29;3.47;;;2.63;;
13463;SDS011;6804;48.774;9.174;2023-06-05T01:24:00;4.40;;;2.80;;
13463;SDS011;6804;48.774;9.174;2023-06-05T01:26:33;2.10;;;1.90;;
13463;SDS011;6804;48.774;9.174;2023-06-05T01:29:09;2.67;;;2.00;;
13463;SDS011;6804;48.774;9.174;2023-06-05T01:31:45;3.37;;;2.70;;
13463;SDS011;6804;48.774;9.174;2023-06-05T01:34:13;3.47;;;2.43;;
13463;SDS011;6804;48.774;9.174;2023-06-05T01:36:45;4.63;;;2.80;;
13463;SDS011;6804;48.774;9.174;2023-06-05T01:39:14;2.97;;;2.40;;
13463;SDS011;6804;48.774;9.174;2023-06-05T01:41:44;3.87;;;2.10;;
13463;SDS011;6804;48.774;9.174;2023-06-05T01:44:22;5.20;;;2.37;;
13463;SDS011;6804;48.774;9.174;2023-06-05T01:46:55;3.07;;;2.50;;
13463;SDS011;6804;48.774;9.174;2023-06-05T01:49:22;2.67;;;1.97;;
13463;SDS011;6804;48.774;9.174;2023-06-05T01:51:49;3.97;;;2.30;;
13463;SDS011;6804;48.774;9.174;2023-06-05T01:54:18;2.47;;;2.07;;
13463;SDS011;6804;48.774;9.174;2023-06-05T01:56:48;3.00;;;2.27;;
13463;SDS011;6804;48.774;9.174;2023-06-05T01:59:20;4.60;;;2.20;;
13463;SDS011;6804;48.774;9.174;2023-06-05T02:01:48;2.40;;;2.07;;
13463;SDS011;6804;48.774;9.174;2023-06-05T02:04:20;4.23;;;2.30;;
13463;SDS011;6804;48.774;9.174;2023-06-05T02:06:47;2.33;;;2.10;;
13463;SDS011;6804;48.774;9.174;2023-06-05T02:09:22;1.97;;;1.70;;
13463;SDS011;6804;48.774;9.174;2023-06-05T02:11:49;3.97;;;2.30;;
13463;SDS011;6804;48.774;9.174;2023-06-05T02:14:19;2.67;;;2.17;;
13463;SDS011;6804;48.774;9.174;2023-06-05T02:16:52;2.07;;;1.87;;
13463;SDS011;6804;48.774;9.174;2023-06-05T02:19:22;4.47;;;2.27;;
13463;SDS011;6804;48.774;9.174;2023-06-05T02:21:52;2.53;;;2.13;;
13463;SDS011;6804;48.774;9.174;2023-06-05T02:24:22;3.00;;;2.10;;
13463;SDS011;6804;48.774;9.174;2023-06-05T02:26:50;2.13;;;1.80;;
13463;SDS011;6804;48.774;9.174;2023-06-05T02:29:21;3.17;;;2.00;;
13463;SDS011;6804;48.774;9.174;2023-06-05T02:31:48;4.43;;;2.50;;
13463;SDS011;6804;48.774;9.174;2023-06-05T02:34:17;4.37;;;2.07;;
13463;SDS011;6804;48.774;9.174;2023-06-05T02:36:44;2.47;;;2.23;;
13463;SDS011;6804;48.774;9.174;2023-06-05T02:39:11;5.07;;;2.00;;
13463;SDS011;6804;48.774;9.174;2023-06-05T02:41:40;2.87;;;2.30;;
13463;SDS011;6804;48.774;9.174;2023-06-05T02:44:09;4.77;;;1.90;;
13463;SDS011;6804;48.774;9.174;2023-06-05T02:46:39;4.60;;;2.20;;
13463;SDS011;6804;48.774;9.174;2023-06-05T02:49:08;4.27;;;2.00;;
13463;SDS011;6804;48.774;9.174;2023-06-05T02:51:38;3.87;;;2.57;;
13463;SDS011;6804;48.774;9.174;2023-06-05T02:54:06;2.73;;;2.07;;
13463;SDS011;6804;48.774;9.174;2023-06-05T02:56:33;3.87;;;2.23;;
13463;SDS011;6804;48.774;9.174;2023-06-05T02:59:04;2.30;;;2.10;;
13463;SDS011;6804;48.774;9.174;2023-06-05T03:01:31;4.07;;;1.93;;
13463;SDS011;6804;48.774;9.174;2023-06-05T03:03:59;2.73;;;1.97;;
13463;SDS011;6804;48.774;9.174;2023-06-05T03:06:27;2.47;;;2.03;;
13463;SDS011;6804;48.774;9.174;2023-06-05T03:08:58;2.70;;;2.00;;
13463;SDS011;6804;48.774;9.174;2023-06-05T03:11:31;3.03;;;2.30;;
13463;SDS011;6804;48.774;9.174;2023-06-05T03:14:05;2.53;;;2.20;;
13463;SDS011;6804;48.774;9.174;2023-06-05T03:16:32;3.47;;;2.00;;
13463;SDS011;6804;48.774;9.174;2023-06-05T03:19:06;4.00;;;1.93;;
13463;SDS011;6804;48.774;9.174;2023-06-05T03:21:34;3.97;;;2.60;;
13463;SDS011;6804;48.774;9.174;2023-06-05T03:24:06;4.27;;;2.50;;
13463;SDS011;6804;48.774;9.174;2023-06-05T03:26:36;5.47;;;2.03;;
13463;SDS011;6804;48.774;9.174;2023-06-05T03:29:04;3.63;;;2.13;;
13463;SDS011;6804;48.774;9.174;2023-06-05T03:31:36;3.07;;;2.53;;
13463;SDS011;6804;48.774;9.174;2023-06-05T03:34:03;4.77;;;2.33;;
13463;SDS011;6804;48.774;9.174;2023-06-05T03:36:34;5.33;;;2.43;;
13463;SDS011;6804;48.774;9.174;2023-06-05T03:39:03;3.77;;;2.20;;
13463;SDS011;6804;48.774;9.174;2023-06-05T03:41:36;5.83;;;2.60;;
13463;SDS011;6804;48.774;9.174;2023-06-05T03:44:05;4.33;;;2.37;;
13463;SDS011;6804;48.774;9.174;2023-06-05T03:46:36;3.80;;;2.20;;
13463;SDS011;6804;48.774;9.174;2023-06-05T03:49:04;3.43;;;2.13;;
13463;SDS011;6804;48.774;9.174;2023-06-05T03:51:34;3.17;;;2.13;;
13463;SDS011;6804;48.774;9.174;2023-06-05T03:54:07;3.10;;;1.97;;
13463;SDS011;6804;48.774;9.174;2023-06-05T03:56:35;2.80;;;1.93;;
13463;SDS011;6804;48.774;9.174;2023-06-05T03:59:10;5.63;;;2.20;;
13463;SDS011;6804;48.774;9.174;2023-06-05T04:01:48;4.27;;;2.47;;
13463;SDS011;6804;48.774;9.174;2023-06-05T04:04:17;3.97;;;2.17;;
13463;SDS011;6804;48.774;9.174;2023-06-05T04:12:24;3.60;;;2.60;;
13463;SDS011;6804;48.774;9.174;2023-06-05T04:14:55;4.23;;;2.50;;
13463;SDS011;6804;48.774;9.174;2023-06-05T04:20:31;5.63;;;2.30;;
13463;SDS011;6804;48.774;9.174;2023-06-05T04:23:09;3.07;;;2.33;;
13463;SDS011;6804;48.774;9.174;2023-06-05T04:25:37;4.17;;;2.30;;
13463;SDS011;6804;48.774;9.174;2023-06-05T04:28:11;3.60;;;2.27;;
13463;SDS011;6804;48.774;9.174;2023-06-05T04:30:47;3.33;;;2.57;;
13463;SDS011;6804;48.774;9.174;2023-06-05T04:33:20;4.50;;;2.17;;
13463;SDS011;6804;48.774;9.174;2023-06-05T04:38:36;6.70;;;2.10;;
13463;SDS011;6804;48.774;9.174;2023-06-05T04:41:05;4.07;;;2.40;;
13463;SDS011;6804;48.774;9.174;2023-06-05T04:43:33;4.60;;;2.10;;
13463;SDS011;6804;48.774;9.174;2023-06-05T04:46:11;3.70;;;2.47;;
13463;SDS011;6804;48.774;9.174;2023-06-05T04:48:41;3.07;;;2.30;;
13463;SDS011;6804;48.774;9.174;2023-06-05T04:51:25;3.33;;;2.00;;
13463;SDS011;6804;48.774;9.174;2023-06-05T04:53:53;3.80;;;2.40;;
13463;SDS011;6804;48.774;9.174;2023-06-05T04:56:20;4.20;;;2.43;;
13463;SDS011;6804;48.774;9.174;2023-06-05T04:58:49;4.53;;;2.20;;
13463;SDS011;6804;48.774;9.174;2023-06-05T05:04:10;3.63;;;2.30;;
13463;SDS011;6804;48.774;9.174;2023-06-05T05:06:46;3.03;;;2.43;;
13463;SDS011;6804;48.774;9.174;2023-06-05T05:09:17;3.57;;;2.00;;
13463;SDS011;6804;48.774;9.174;2023-06-05T05:14:36;3.40;;;2.30;;
13463;SDS011;6804;48.774;9.174;2023-06-05T05:17:10;3.40;;;2.40;;
13463;SDS011;6804;48.774;9.174;2023-06-05T05:19:39;3.70;;;2.53;;
13463;SDS011;6804;48.774;9.174;2023-06-05T05:22:07;5.50;;;2.50;;
13463;SDS011;6804;48.774;9.174;2023-06-05T05:24:38;3.50;;;2.40;;
13463;SDS011;6804;48.774;9.174;2023-06-05T05:27:08;6.03;;;2.70;;
13463;SDS011;6804;48.774;9.174;2023-06-05T05:29:37;3.20;;;2.37;;
13463;SDS011;6804;48.774;9.174;2023-06-05T05:32:08;4.03;;;2.73;;
13463;SDS011;6804;48.774;9.174;2023-06-05T05:37:26;4.07;;;2.43;;
13463;SDS011;6804;48.774;9.174;2023-06-05T05:39:55;4.93;;;2.53;;
13463;SDS011;6804;48.774;9.174;2023-06-05T05:42:28;4.40;;;2.97;;
13463;SDS011;6804;48.774;9.174;2023-06-05T05:47:44;3.90;;;2.43;;
13463;SDS011;6804;48.774;9.174;2023-06-05T05:50:11;5.37;;;3.00;;
13463;SDS011;6804;48.774;9.174;2023-06-05T05:52:38;3.93;;;2.40;;
13463;SDS011;6804;48.774;9.174;2023-06-05T05:55:08;4.07;;;2.60;;
13463;SDS011;6804;48.774;9.174;2023-06-05T05:57:36;8.47;;;3.40;;
13463;SDS011;6804;48.774;9.174;2023-06-05T06:00:04;5.67;;;3.03;;
13463;SDS011;6804;48.774;9.174;2023-06-05T06:02:36;5.40;;;2.40;;
13463;SDS011;6804;48.774;9.174;2023-06-05T06:05:11;5.30;;;2.57;;
13463;SDS011;6804;48.774;9.174;2023-06-05T06:07:39;2.53;;;2.17;;
13463;SDS011;6804;48.774;9.174;2023-06-05T06:10:08;6.30;;;2.40;;
13463;SDS011;6804;48.774;9.174;2023-06-05T06:12:37;5.43;;;2.67;;
13463;SDS011;6804;48.774;9.174;2023-06-05T06:15:08;3.73;;;2.50;;
13463;SDS011;6804;48.774;9.174;2023-06-05T06:17:36;3.37;;;2.20;;
13463;SDS011;6804;48.774;9.174;2023-06-05T06:20:07;4.77;;;2.57;;
13463;SDS011;6804;48.774;9.174;2023-06-05T06:22:40;3.97;;;2.70;;
13463;SDS011;6804;48.774;9.174;2023-06-05T06:25:09;7.70;;;2.77;;
13463;SDS011;6804;48.774;9.174;2023-06-05T06:30:08;4.97;;;2.43;;
13463;SDS011;6804;48.774;9.174;2023-06-05T06:32:37;7.37;;;2.60;;
13463;SDS011;6804;48.774;9.174;2023-06-05T06:38:01;5.43;;;2.70;;
13463;SDS011;6804;48.774;9.174;2023-06-05T06:40:31;4.67;;;2.57;;
13463;SDS011;6804;48.774;9.174;2023-06-05T06:42:59;7.83;;;3.07;;
13463;SDS011;6804;48.774;9.174;2023-06-05T06:45:27;8.13;;;3.08;;
13463;SDS011;6804;48.774;9.174;2023-06-05T06:47:55;4.07;;;2.58;;
13463;SDS011;6804;48.774;9.174;2023-06-05T06:50:22;7.35;;;3.28;;
13463;SDS011;6804;48.774;9.174;2023-06-05T06:52:51;3.70;;;2.58;;
13463;SDS011;6804;48.774;9.174;2023-06-05T06:55:21;7.50;;;3.58;;
13463;SDS011;6804;48.774;9.174;2023-06-05T06:57:49;5.57;;;2.90;;
13463;SDS011;6804;48.774;9.174;2023-06-05T07:00:20;6.75;;;2.95;;
13463;SDS011;6804;48.774;9.174;2023-06-05T07:02:50;8.18;;;2.88;;
13463;SDS011;6804;48.774;9.174;2023-06-05T07:05:18;6.97;;;2.90;;
13463;SDS011;6804;48.774;9.174;2023-06-05T07:07:51;3.75;;;2.80;;
13463;SDS011;6804;48.774;9.174;2023-06-05T07:10:19;2.85;;;2.33;;
13463;SDS011;6804;48.774;9.174;2023-06-05T07:15:36;4.15;;;2.88;;
13463;SDS011;6804;48.774;9.174;2023-06-05T07:18:05;3.80;;;2.90;;
13463;SDS011;6804;48.774;9.174;2023-06-05T07:20:35;5.38;;;2.72;;
13463;SDS011;6804;48.774;9.174;2023-06-05T07:23:03;4.70;;;2.88;;
13463;SDS011;6804;48.774;9.174;2023-06-05T07:25:32;5.30;;;2.63;;
13463;SDS011;6804;48.774;9.174;2023-06-05T07:28:00;4.15;;;2.95;;
13463;SDS011;6804;48.774;9.174;2023-06-05T07:30:29;6.78;;;2.97;;
13463;SDS011;6804;48.774;9.174;2023-06-05T07:33:00;6.68;;;3.30;;
13463;SDS011;6804;48.774;9.174;2023-06-05T07:35:29;6.93;;;3.20;;
13463;SDS011;6804;48.774;9.174;2023-06-05T07:38:01;4.55;;;3.20;;
13463;SDS011;6804;48.774;9.174;2023-06-05T07:40:28;4.65;;;3.20;;
13463;SDS011;6804;48.774;9.174;2023-06-05T07:43:03;4.15;;;2.88;;
13463;SDS011;6804;48.774;9.174;2023-06-05T07:45:31;3.08;;;2.78;;
13463;SDS011;6804;48.774;9.174;2023-06-05T07:47:59;3.85;;;3.03;;
13463;SDS011;6804;48.774;9.174;2023-06-05T07:50:29;5.03;;;3.28;;
13463;SDS011;6804;48.774;9.174;2023-06-05T07:52:57;4.32;;;3.13;;
13463;SDS011;6804;48.774;9.174;2023-06-05T07:55:35;5.40;;;3.05;;
13463;SDS011;6804;48.774;9.174;2023-06-05T07:58:04;5.82;;;3.40;;
13463;SDS011;6804;48.774;9.174;2023-06-05T08:00:32;4.82;;;3.22;;
13463;SDS011;6804;48.774;9.174;2023-06-05T08:02:59;5.03;;;3.90;;
13463;SDS011;6804;48.774;9.174;2023-06-05T08:05:30;3.83;;;3.42;;
13463;SDS011;6804;48.774;9.174;2023-06-05T08:08:00;3.80;;;3.47;;
13463;SDS011;6804;48.774;9.174;2023-06-05T08:10:30;4.32;;;3.67;;
13463;SDS011;6804;48.774;9.174;2023-06-05T08:12:58;4.75;;;3.33;;
13463;SDS011;6804;48.774;9.174;2023-06-05T08:15:35;5.40;;;3.70;;
13463;SDS011;6804;48.774;9.174;2023-06-05T08:18:05;6.55;;;3.58;;
13463;SDS011;6804;48.774;9.174;2023-06-05T08:20:33;5.28;;;3.38;;
13463;SDS011;6804;48.774;9.174;2023-06-05T08:23:00;5.13;;;3.53;;
13463;SDS011;6804;48.774;9.174;2023-06-05T08:25:34;7.15;;;3.80;;
13463;SDS011;6804;48.774;9.174;2023-06-05T08:28:02;5.78;;;3.83;;
13463;SDS011;6804;48.774;9.174;2023-06-05T08:30:30;8.25;;;3.83;;
13463;SDS011;6804;48.774;9.174;2023-06-05T08:32:59;6.22;;;3.78;;
13463;SDS011;6804;48.774;9.174;2023-06-05T08:35:29;5.55;;;3.88;;
13463;SDS011;6804;48.774;9.174;2023-06-05T08:37:57;5.60;;;4.07;;
13463;SDS011;6804;48.774;9.174;2023-06-05T08:40:25;6.45;;;3.95;;
13463;SDS011;6804;48.774;9.174;2023-06-05T08:42:54;5.70;;;4.40;;
13463;SDS011;6804;48.774;9.174;2023-06-05T08:45:22;4.85;;;4.15;;
13463;SDS011;6804;48.774;9.174;2023-06-05T08:47:54;4.38;;;3.97;;
13463;SDS011;6804;48.774;9.174;2023-06-05T08:50:25;4.70;;;4.20;;
13463;SDS011;6804;48.774;9.174;2023-06-05T08:52:58;5.40;;;3.90;;
13463;SDS011;6804;48.774;9.174;2023-06-05T08:55:30;4.85;;;3.85;;
13463;SDS011;6804;48.774;9.174;2023-06-05T08:58:00;7.28;;;3.92;;
13463;SDS011;6804;48.774;9.174;2023-06-05T09:00:43;5.05;;;3.97;;
13463;SDS011;6804;48.774;9.174;2023-06-05T09:03:18;5.95;;;3.97;;
13463;SDS011;6804;48.774;9.174;2023-06-05T09:05:46;7.80;;;4.15;;
13463;SDS011;6804;48.774;9.174;2023-06-05T09:08:14;6.47;;;3.92;;
13463;SDS011;6804;48.774;9.174;2023-06-05T09:10:42;6.22;;;4.57;;
13463;SDS011;6804;48.774;9.174;2023-06-05T09:13:13;7.28;;;4.20;;
13463;SDS011;6804;48.774;9.174;2023-06-05T09:15:41;5.95;;;4.80;;
13463;SDS011;6804;48.774;9.174;2023-06-05T09:18:22;9.70;;;4.88;;
13463;SDS011;6804;48.774;9.174;2023-06-05T09:20:57;6.22;;;4.30;;
13463;SDS011;6804;48.774;9.174;2023-06-05T09:23:42;6.65;;;3.50;;
13463;SDS011;6804;48.774;9.174;2023-06-05T09:26:15;4.18;;;3.63;;
13463;SDS011;6804;48.774;9.174;2023-06-05T09:28:54;4.80;;;3.45;;
13463;SDS011;6804;48.774;9.174;2023-06-05T09:31:24;3.85;;;3.13;;
13463;SDS011;6804;48.774;9.174;2023-06-05T09:33:57;7.55;;;3.83;;
13463;SDS011;6804;48.774;9.174;2023-06-05T09:36:24;4.28;;;3.60;;
13463;SDS011;6804;48.774;9.174;2023-06-05T09:38:53;6.18;;;4.10;;
13463;SDS011;6804;48.774;9.174;2023-06-05T09:41:26;6.13;;;3.85;;
13463;SDS011;6804;48.774;9.174;2023-06-05T09:43:54;5.18;;;3.78;;
13463;SDS011;6804;48.774;9.174;2023-06-05T09:46:33;4.60;;;3.67;;
13463;SDS011;6804;48.774;9.174;2023-06-05T09:49:19;7.75;;;5.95;;
13463;SDS011;6804;48.774;9.174;2023-06-05T09:51:47;8.85;;;5.50;;
13463;SDS011;6804;48.774;9.174;2023-06-05T09:54:15;6.55;;;3.83;;
13463;SDS011;6804;48.774;9.174;2023-06-05T09:56:45;5.00;;;4.50;;
13463;SDS011;6804;48.774;9.174;2023-06-05T09:59:18;5.43;;;3.85;;
13463;SDS011;6804;48.774;9.174;2023-06-05T10:01:51;7.18;;;4.13;;
13463;SDS011;6804;48.774;9.174;2023-06-05T10:04:22;5.55;;;4.40;;
13463;SDS011;6804;48.774;9.174;2023-06-05T10:06:52;5.07;;;3.90;;
13463;SDS011;6804;48.774;9.174;2023-06-05T10:09:25;4.35;;;3.95;;
13463;SDS011;6804;48.774;9.174;2023-06-05T10:11:58;6.43;;;4.65;;
13463;SDS011;6804;48.774;9.174;2023-06-05T10:14:30;5.80;;;5.30;;
13463;SDS011;6804;48.774;9.174;2023-06-05T10:16:57;5.65;;;4.00;;
13463;SDS011;6804;48.774;9.174;2023-06-05T10:19:29;5.68;;;4.32;;
13463;SDS011;6804;48.774;9.174;2023-06-05T10:21:57;6.32;;;3.78;;
13463;SDS011;6804;48.774;9.174;2023-06-05T10:24:26;6.07;;;4.38;;
13463;SDS011;6804;48.774;9.174;2023-06-05T10:30:12;4.90;;;4.40;;
13463;SDS011;6804;48.774;9.174;2023-06-05T10:33:16;8.10;;;5.60;;
13463;SDS011;6804;48.774;9.174;2023-06-05T10:35:59;7.90;;;6.05;;
13463;SDS011;6804;48.774;9.174;2023-06-05T10:38:38;4.72;;;4.00;;
13463;SDS011;6804;48.774;9.174;2023-06-05T10:41:06;5.03;;;3.70;;
13463;SDS011;6804;48.774;9.174;2023-06-05T10:43:37;4.47;;;4.00;;
13463;SDS011;6804;48.774;9.174;2023-06-05T10:46:29;6.43;;;4.13;;
13463;SDS011;6804;48.774;9.174;2023-06-05T10:49:11;6.95;;;4.22;;
13463;SDS011;6804;48.774;9.174;2023-06-05T10:51:43;4.30;;;3.35;;
13463;SDS011;6804;48.774;9.174;2023-06-05T10:57:19;3.85;;;3.05;;
13463;SDS011;6804;48.774;9.174;2023-06-05T10:59:47;4.65;;;3.58;;
13463;SDS011;6804;48.774;9.174;2023-06-05T11:02:46;6.25;;;3.53;;
13463;SDS011;6804;48.774;9.174;2023-06-05T11:05:14;5.68;;;3.47;;
13463;SDS011;6804;48.774;9.174;2023-06-05T11:08:09;6.10;;;5.50;;
13463;SDS011;6804;48.774;9.174;2023-06-05T11:16:30;4.70;;;3.20;;
13463;SDS011;6804;48.774;9.174;2023-06-05T11:22:13;5.97;;;3.10;;
13463;SDS011;6804;48.774;9.174;2023-06-05T11:24:43;5.20;;;3.45;;
13463;SDS011;6804;48.774;9.174;2023-06-05T11:27:42;3.65;;;3.30;;
13463;SDS011;6804;48.774;9.174;2023-06-05T11:30:13;7.55;;;3.72;;
13463;SDS011;6804;48.774;9.174;2023-06-05T11:32:47;4.88;;;3.47;;
13463;SDS011;6804;48.774;9.174;2023-06-05T11:35:20;4.78;;;3.33;;
13463;SDS011;6804;48.774;9.174;2023-06-05T11:37:48;3.40;;;2.90;;
13463;SDS011;6804;48.774;9.174;2023-06-05T11:40:24;6.22;;;2.90;;
13463;SDS011;6804;48.774;9.174;2023-06-05T11:42:52;6.47;;;4.32;;
13463;SDS011;6804;48.774;9.174;2023-06-05T11:45:31;10.40;;;3.92;;
13463;SDS011;6804;48.774;9.174;2023-06-05T11:48:06;4.30;;;3.15;;
13463;SDS011;6804;48.774;9.174;2023-06-05T11:50:51;4.53;;;3.05;;
13463;SDS011;6804;48.774;9.174;2023-06-05T11:53:23;7.68;;;4.13;;
13463;SDS011;6804;48.774;9.174;2023-06-05T11:55:58;8.93;;;3.80;;
13463;SDS011;6804;48.774;9.174;2023-06-05T11:58:40;7.45;;;3.75;;
13463;SDS011;6804;48.774;9.174;2023-06-05T12:01:08;6.18;;;3.30;;
13463;SDS011;6804;48.774;9.174;2023-06-05T12:03:39;4.15;;;2.92;;
13463;SDS011;6804;48.774;9.174;2023-06-05T12:06:07;3.72;;;3.22;;
13463;SDS011;6804;48.774;9.174;2023-06-05T12:08:39;4.38;;;3.70;;
13463;SDS011;6804;48.774;9.174;2023-06-05T12:11:23;4.70;;;3.28;;
13463;SDS011;6804;48.774;9.174;2023-06-05T12:13:52;5.75;;;3.75;;
13463;SDS011;6804;48.774;9.174;2023-06-05T12:16:32;4.93;;;3.70;;
13463;SDS011;6804;48.774;9.174;2023-06-05T12:19:10;3.65;;;3.22;;
13463;SDS011;6804;48.774;9.174;2023-06-05T12:21:40;6.03;;;3.60;;
13463;SDS011;6804;48.774;9.174;2023-06-05T12:24:08;6.65;;;3.67;;
13463;SDS011;6804;48.774;9.174;2023-06-05T12:26:53;7.75;;;4.20;;
13463;SDS011;6804;48.774;9.174;2023-06-05T12:32:21;8.30;;;3.97;;
13463;SDS011;6804;48.774;9.174;2023-06-05T12:34:52;5.72;;;4.00;;
13463;SDS011;6804;48.774;9.174;2023-06-05T12:37:41;5.60;;;3.40;;
13463;SDS011;6804;48.774;9.174;2023-06-05T12:40:11;5.05;;;3.33;;
13463;SDS011;6804;48.774;9.174;2023-06-05T12:42:40;4.70;;;4.05;;
13463;SDS011;6804;48.774;9.174;2023-06-05T12:45:12;6.72;;;4.15;;
13463;SDS011;6804;48.774;9.174;2023-06-05T12:47:41;5.75;;;4.38;;
13463;SDS011;6804;48.774;9.174;2023-06-05T12:50:09;5.57;;;3.90;;
13463;SDS011;6804;48.774;9.174;2023-06-05T12:52:37;7.50;;;3.80;;
13463;SDS011;6804;48.774;9.174;2023-06-05T12:55:10;4.80;;;3.67;;
13463;SDS011;6804;48.774;9.174;2023-06-05T12:57:37;4.82;;;4.10;;
13463;SDS011;6804;48.774;9.174;2023-06-05T13:00:15;5.95;;;4.35;;
13463;SDS011;6804;48.774;9.174;2023-06-05T13:02:46;5.60;;;3.78;;
13463;SDS011;6804;48.774;9.174;2023-06-05T13:05:14;4.18;;;3.47;;
13463;SDS011;6804;48.774;9.174;2023-06-05T13:07:43;7.72;;;4.88;;
13463;SDS011;6804;48.774;9.174;2023-06-05T13:10:14;5.22;;;4.15;;
13463;SDS011;6804;48.774;9.174;2023-06-05T13:12:47;4.78;;;3.47;;
13463;SDS011;6804;48.774;9.174;2023-06-05T13:15:17;5.80;;;3.50;;
13463;SDS011;6804;48.774;9.174;2023-06-05T13:17:45;4.70;;;3.92;;
13463;SDS011;6804;48.774;9.174;2023-06-05T13:20:22;7.05;;;4.10;;
13463;SDS011;6804;48.774;9.174;2023-06-05T13:22:50;4.10;;;3.70;;
13463;SDS011;6804;48.774;9.174;2023-06-05T13:25:22;4.85;;;3.70;;
13463;SDS011;6804;48.774;9.174;2023-06-05T13:27:50;4.13;;;3.70;;
13463;SDS011;6804;48.774;9.174;2023-06-05T13:30:17;4.57;;;3.35;;
13463;SDS011;6804;48.774;9.174;2023-06-05T13:32:45;5.38;;;3.60;;
13463;SDS011;6804;48.774;9.174;2023-06-05T13:35:13;4.95;;;3.60;;
13463;SDS011;6804;48.774;9.174;2023-06-05T13:37:43;4.68;;;3.75;;
13463;SDS011;6804;48.774;9.174;2023-06-05T13:40:13;8.25;;;6.60;;
13463;SDS011;6804;48.774;9.174;2023-06-05T13:42:42;5.15;;;4.30;;
13463;SDS011;6804;48.774;9.174;2023-06-05T13:45:10;4.03;;;3.72;;
13463;SDS011;6804;48.774;9.174;2023-06-05T13:47:39;5.15;;;3.85;;
13463;SDS011;6804;48.774;9.174;2023-06-05T13:50:10;5.68;;;4.15;;
13463;SDS011;6804;48.774;9.174;2023-06-05T13:52:42;4.38;;;3.70;;
13463;SDS011;6804;48.774;9.174;2023-06-05T13:55:12;4.53;;;3.70;;
13463;SDS011;6804;48.774;9.174;2023-06-05T13:57:43;5.13;;;4.35;;
13463;SDS011;6804;48.774;9.174;2023-06-05T14:00:11;5.88;;;4.07;;
13463;SDS011;6804;48.774;9.174;2023-06-05T14:02:40;3.88;;;3.58;;
13463;SDS011;6804;48.774;9.174;2023-06-05T14:05:08;4.57;;;3.95;;
13463;SDS011;6804;48.774;9.174;2023-06-05T14:07:40;4.10;;;3.65;;
13463;SDS011;6804;48.774;9.174;2023-06-05T14:10:12;4.32;;;3.65;;
13463;SDS011;6804;48.774;9.174;2023-06-05T14:15:34;8.57;;;4.10;;
13463;SDS011;6804;48.774;9.174;2023-06-05T14:18:02;5.88;;;4.07;;
13463;SDS011;6804;48.774;9.174;2023-06-05T14:20:33;4.75;;;4.13;;
13463;SDS011;6804;48.774;9.174;2023-06-05T14:23:04;5.03;;;3.92;;
13463;SDS011;6804;48.774;9.174;2023-06-05T14:25:32;4.53;;;3.70;;
13463;SDS011;6804;48.774;9.174;2023-06-05T14:28:00;4.60;;;3.45;;
13463;SDS011;6804;48.774;9.174;2023-06-05T14:30:28;4.68;;;3.75;;
13463;SDS011;6804;48.774;9.174;2023-06-05T14:32:57;8.63;;;5.10;;
13463;SDS011;6804;48.774;9.174;2023-06-05T14:35:25;4.82;;;3.60;;
13463;SDS011;6804;48.774;9.174;2023-06-05T14:37:53;8.55;;;4.65;;
13463;SDS011;6804;48.774;9.174;2023-06-05T14:40:20;6.85;;;4.03;;
13463;SDS011;6804;48.774;9.174;2023-06-05T14:42:49;7.43;;;4.97;;
13463;SDS011;6804;48.774;9.174;2023-06-05T14:45:24;9.95;;;6.72;;
13463;SDS011;6804;48.774;9.174;2023-06-05T14:47:55;5.78;;;3.47;;
13463;SDS011;6804;48.774;9.174;2023-06-05T14:50:23;6.60;;;4.82;;
13463;SDS011;6804;48.774;9.174;2023-06-05T14:52:50;11.38;;;7.80;;
13463;SDS011;6804;48.774;9.174;2023-06-05T14:55:26;11.55;;;5.28;;
13463;SDS011;6804;48.774;9.174;2023-06-05T14:57:54;6.13;;;4.93;;
13463;SDS011;6804;48.774;9.174;2023-06-05T15:00:21;7.45;;;5.00;;
13463;SDS011;6804;48.774;9.174;2023-06-05T15:02:51;5.60;;;4.82;;
13463;SDS011;6804;48.774;9.174;2023-06-05T15:05:26;7.10;;;4.88;;
13463;SDS011;6804;48.774;9.174;2023-06-05T15:07:57;7.35;;;4.72;;
13463;SDS011;6804;48.774;9.174;2023-06-05T15:10:25;6.97;;;5.20;;
13463;SDS011;6804;48.774;9.174;2023-06-05T15:12:54;8.35;;;3.80;;
13463;SDS011;6804;48.774;9.174;2023-06-05T15:15:27;6.10;;;3.50;;
13463;SDS011;6804;48.774;9.174;2023-06-05T15:17:55;5.38;;;3.80;;
13463;SDS011;6804;48.774;9.174;2023-06-05T15:20:25;5.07;;;4.57;;
13463;SDS011;6804;48.774;9.174;2023-06-05T15:22:56;5.05;;;2.90;;
13463;SDS011;6804;48.774;9.174;2023-06-05T15:25:24;5.10;;;3.22;;
13463;SDS011;6804;48.774;9.174;2023-06-05T15:27:53;3.50;;;3.20;;
13463;SDS011;6804;48.774;9.174;2023-06-05T15:30:25;3.38;;;2.78;;
13463;SDS011;6804;48.774;9.174;2023-06-05T15:32:56;3.08;;;2.78;;
13463;SDS011;6804;48.774;9.174;2023-06-05T15:35:24;3.78;;;2.90;;
13463;SDS011;6804;48.774;9.174;2023-06-05T15:37:55;3.67;;;2.90;;
13463;SDS011;6804;48.774;9.174;2023-06-05T15:40:26;6.57;;;3.45;;
13463;SDS011;6804;48.774;9.174;2023-06-05T15:43:02;7.07;;;3.70;;
13463;SDS011;6804;48.774;9.174;2023-06-05T15:45:35;6.28;;;4.43;;
13463;SDS011;6804;48.774;9.174;2023-06-05T15:48:02;7.78;;;4.55;;
13463;SDS011;6804;48.774;9.174;2023-06-05T15:50:31;10.82;;;8.00;;
13463;SDS011;6804;48.774;9.174;2023-06-05T15:53:02;6.47;;;4.32;;
13463;SDS011;6804;48.774;9.174;2023-06-05T15:55:38;8.75;;;5.10;;
13463;SDS011;6804;48.774;9.174;2023-06-05T15:58:07;7.45;;;4.35;;
13463;SDS011;6804;48.774;9.174;2023-06-05T16:00:37;6.07;;;4.10;;
13463;SDS011;6804;48.774;9.174;2023-06-05T16:03:05;4.65;;;3.42;;
13463;SDS011;6804;48.774;9.174;2023-06-05T16:05:33;3.63;;;3.30;;
13463;SDS011;6804;48.774;9.174;2023-06-05T16:08:05;4.65;;;3.30;;
13463;SDS011;6804;48.774;9.174;2023-06-05T16:10:33;3.70;;;3.13;;
13463;SDS011;6804;48.774;9.174;2023-06-05T16:13:07;8.63;;;6.88;;
13463;SDS011;6804;48.774;9.174;2023-06-05T16:15:38;7.05;;;4.45;;